Time;durP1;ratioP1;P1;durP2;ratioP2;P2;SDS_P1;SDS_P2;PMS_P1;PMS_P2;Temp;Humidity;BMP_temperature;BMP_pressure;BME280_temperature;BME280_humidity;BME280_pressure;Samples;Min_cycle;Max_cycle;Signal;HPM_P1;HPM_P2
2021/03/27 00:00:31;;;;;;;;;;;9.40;79.50;;;;;;4348157;33;20017;-73
2021/03/27 00:03:03;;;;;;;;;;;9.40;79.50;;;;;;4347902;33;20006;-73
2021/03/27 00:05:32;;;;;;;;;;;9.40;79.60;;;;;;4334285;33;20033;-73
2021/03/27 00:08:07;;;;;;;;;;;9.30;79.80;;;;;;4347218;33;20039;-73
2021/03/27 00:10:40;;;;;;;;;;;9.30;79.80;;;;;;4322307;33;19997;-74
2021/03/27 00:13:15;;;;;;;;;;;9.30;79.80;;;;;;4347711;33;20019;-74
2021/03/27 00:15:51;;;;;;;;;;;9.30;80.00;;;;;;4348230;33;20017;-74
2021/03/27 00:18:23;;;;;;;;;;;9.30;79.90;;;;;;4347681;33;20012;-74
2021/03/27 00:20:57;;;;;;;;;;;9.30;80.00;;;;;;4334063;33;19990;-74
2021/03/27 00:23:28;;;;;;;;;;;9.30;79.80;;;;;;4347752;33;20011;-74
2021/03/27 00:25:58;;;;;;;;;;;9.30;79.80;;;;;;4345689;33;43822;-74
2021/03/27 00:29:00;;;;;;;;;;;9.30;79.80;;;;;;4332601;33;46131;-74
2021/03/27 00:31:46;;;;;;;;;;;9.20;80.00;;;;;;4325384;33;39227;-74
2021/03/27 00:34:16;;;;;;;;;;;9.20;80.20;;;;;;4347429;33;20005;-74
2021/03/27 00:36:47;;;;;;;;;;;9.20;80.20;;;;;;4347049;33;20031;-74
2021/03/27 00:39:19;;;;;;;;;;;9.10;80.20;;;;;;4347837;33;20387;-74
2021/03/27 00:42:12;;;;;;;;;;;9.10;80.30;;;;;;4347525;33;20072;-74
2021/03/27 00:44:51;;;;;;;;;;;9.10;80.30;;;;;;4346094;33;20027;-74
2021/03/27 00:47:22;;;;;;;;;;;9.10;80.20;;;;;;4347058;33;20044;-74
2021/03/27 00:50:21;;;;;;;;;;;9.10;80.30;;;;;;4333915;33;20011;-74
2021/03/27 00:52:55;;;;;;;;;;;9.00;80.50;;;;;;4334231;33;20009;-74
2021/03/27 00:55:33;;;;;;;;;;;8.90;80.60;;;;;;4334213;33;20017;-74
2021/03/27 00:58:12;;;;;;;;;;;8.90;80.80;;;;;;4347463;33;20010;-74
2021/03/27 01:00:42;;;;;;;;;;;8.80;81.00;;;;;;4333887;33;20019;-74
2021/03/27 01:03:10;;;;;;;;;;;8.80;81.30;;;;;;4345950;33;44029;-74
2021/03/27 01:05:40;;;;;;;;;;;8.80;81.50;;;;;;4332255;33;44062;-74
2021/03/27 01:08:09;;;;;;;;;;;8.70;81.50;;;;;;4332945;33;43340;-74
2021/03/27 01:10:42;;;;;;;;;;;8.70;81.50;;;;;;4332296;33;43166;-74
2021/03/27 01:13:16;;;;;;;;;;;8.70;81.70;;;;;;4346112;33;39463;-73
2021/03/27 01:15:51;;;;;;;;;;;8.60;81.80;;;;;;4332653;33;40261;-74
2021/03/27 01:18:30;;;;;;;;;;;8.60;81.90;;;;;;4345864;33;44694;-74
2021/03/27 01:21:00;;;;;;;;;;;8.60;82.10;;;;;;4345959;33;41819;-74
2021/03/27 01:23:30;;;;;;;;;;;8.60;82.20;;;;;;4332353;33;34208;-74
2021/03/27 01:26:00;;;;;;;;;;;8.50;82.30;;;;;;4332601;33;34371;-74
2021/03/27 01:28:41;;;;;;;;;;;8.50;82.50;;;;;;4332683;33;35371;-74
2021/03/27 01:31:08;;;;;;;;;;;8.50;82.40;;;;;;4345664;33;41745;-74
2021/03/27 01:33:39;;;;;;;;;;;8.50;82.40;;;;;;4345674;33;35086;-74
2021/03/27 01:36:17;;;;;;;;;;;8.50;82.50;;;;;;4345333;33;43675;-74
2021/03/27 01:38:53;;;;;;;;;;;8.50;82.60;;;;;;4345663;33;44685;-74
2021/03/27 01:41:39;;;;;;;;;;;8.40;82.60;;;;;;4345597;33;44281;-74
2021/03/27 01:44:24;;;;;;;;;;;8.50;82.70;;;;;;4331857;33;42552;-74
2021/03/27 01:46:58;;;;;;;;;;;8.40;82.60;;;;;;4345531;33;44575;-74
2021/03/27 01:49:30;;;;;;;;;;;8.40;83.00;;;;;;4345514;33;44324;-74
2021/03/27 01:51:57;;;;;;;;;;;8.30;83.00;;;;;;4346630;33;20050;-73
2021/03/27 01:54:26;;;;;;;;;;;8.40;82.90;;;;;;4346429;33;20013;-73
2021/03/27 01:57:06;;;;;;;;;;;8.40;82.80;;;;;;4333050;33;20001;-73
2021/03/27 01:59:39;;;;;;;;;;;8.40;82.90;;;;;;4320739;33;20008;-74
2021/03/27 02:02:09;;;;;;;;;;;8.30;83.10;;;;;;4320782;33;20370;-73
2021/03/27 02:04:40;;;;;;;;;;;8.30;83.20;;;;;;4346219;33;20017;-73
2021/03/27 02:07:19;;;;;;;;;;;8.20;83.40;;;;;;4346967;33;20019;-73
2021/03/27 02:10:04;;;;;;;;;;;8.20;83.40;;;;;;4346364;33;20071;-73
2021/03/27 02:12:36;;;;;;;;;;;8.20;83.70;;;;;;4346089;33;20017;-73
2021/03/27 02:15:10;;;;;;;;;;;8.20;83.40;;;;;;4333453;33;20024;-73
2021/03/27 02:17:49;;;;;;;;;;;8.20;83.50;;;;;;4345286;33;45608;-73
2021/03/27 02:20:21;;;;;;;;;;;8.20;83.40;;;;;;4345609;33;32875;-73
2021/03/27 02:23:09;;;;;;;;;;;8.20;83.40;;;;;;4333074;33;20064;-73
2021/03/27 02:25:55;;;;;;;;;;;8.10;83.40;;;;;;4345001;33;43776;-73
2021/03/27 02:28:37;;;;;;;;;;;8.10;83.40;;;;;;4345856;33;20921;-73
2021/03/27 02:31:12;;;;;;;;;;;8.10;83.30;;;;;;4345896;33;20410;-73
2021/03/27 02:33:55;;;;;;;;;;;8.10;83.20;;;;;;4346357;33;20005;-73
2021/03/27 02:36:25;;;;;;;;;;;8.10;83.20;;;;;;4333383;33;20027;-73
2021/03/27 02:39:17;;;;;;;;;;;8.10;83.80;;;;;;4346322;33;20013;-73
2021/03/27 02:41:47;;;;;;;;;;;8.10;83.00;;;;;;4340558;33;20020;-73
2021/03/27 02:44:32;;;;;;;;;;;8.10;82.90;;;;;;4333138;33;20027;-73
2021/03/27 02:47:21;;;;;;;;;;;8.10;82.90;;;;;;4331320;33;41869;-73
2021/03/27 02:49:54;;;;;;;;;;;8.00;82.80;;;;;;4340003;33;43794;-73
2021/03/27 02:52:45;;;;;;;;;;;8.00;82.90;;;;;;4334501;33;39132;-73
2021/03/27 02:55:14;;;;;;;;;;;8.00;82.80;;;;;;4347882;33;44677;-73
2021/03/27 02:57:53;;;;;;;;;;;8.00;82.80;;;;;;4334893;33;27303;-73
2021/03/27 03:00:27;;;;;;;;;;;8.00;82.80;;;;;;4334355;33;43337;-73
2021/03/27 03:03:23;;;;;;;;;;;8.00;82.90;;;;;;4334260;33;43375;-73
2021/03/27 03:05:56;;;;;;;;;;;8.00;82.90;;;;;;4338348;33;35664;-73
2021/03/27 03:08:24;;;;;;;;;;;7.90;82.90;;;;;;4348394;33;20053;-73
2021/03/27 03:10:53;;;;;;;;;;;8.00;82.90;;;;;;4335347;33;20015;-73
2021/03/27 03:13:26;;;;;;;;;;;7.90;83.50;;;;;;4348859;33;20005;-73
2021/03/27 03:16:11;;;;;;;;;;;7.90;82.80;;;;;;4348847;33;20002;-73
2021/03/27 03:18:57;;;;;;;;;;;7.90;82.80;;;;;;4334850;33;19993;-73
2021/03/27 03:21:30;;;;;;;;;;;7.90;82.80;;;;;;4335242;33;20021;-73
2021/03/27 03:24:10;;;;;;;;;;;7.90;83.10;;;;;;4348740;33;20159;-73
2021/03/27 03:26:49;;;;;;;;;;;7.80;83.20;;;;;;4348877;33;20009;-73
2021/03/27 03:29:22;;;;;;;;;;;7.70;83.40;;;;;;4334942;33;20089;-73
2021/03/27 03:32:02;;;;;;;;;;;7.70;83.70;;;;;;4348554;33;20001;-73
2021/03/27 03:34:34;;;;;;;;;;;7.70;83.60;;;;;;4348461;33;20005;-73
2021/03/27 03:37:07;;;;;;;;;;;7.80;83.50;;;;;;4347696;33;23472;-73
2021/03/27 03:39:37;;;;;;;;;;;7.80;83.50;;;;;;4347422;33;42310;-73
2021/03/27 03:42:05;;;;;;;;;;;7.70;83.60;;;;;;4346991;33;42144;-73
2021/03/27 03:44:43;;;;;;;;;;;7.70;83.70;;;;;;4348415;33;20009;-73
2021/03/27 03:47:13;;;;;;;;;;;7.70;83.80;;;;;;4335206;33;20415;-73
2021/03/27 03:50:07;;;;;;;;;;;7.70;83.80;;;;;;4348186;33;20080;-73
2021/03/27 03:52:40;;;;;;;;;;;7.70;83.80;;;;;;4334486;33;20001;-73
2021/03/27 03:55:22;;;;;;;;;;;7.70;83.90;;;;;;4334671;33;20008;-73
2021/03/27 03:58:00;;;;;;;;;;;7.70;83.80;;;;;;4334805;33;20001;-73
2021/03/27 04:00:37;;;;;;;;;;;7.70;84.10;;;;;;4334887;33;20448;-73
2021/03/27 04:03:14;;;;;;;;;;;7.70;84.00;;;;;;4347510;33;20013;-73
2021/03/27 04:06:01;;;;;;;;;;;7.70;84.00;;;;;;4334714;33;19993;-72
2021/03/27 04:08:42;;;;;;;;;;;7.70;84.30;;;;;;4347372;33;20002;-72
2021/03/27 04:11:29;;;;;;;;;;;7.70;84.40;;;;;;4347789;33;20395;-72
2021/03/27 04:13:57;;;;;;;;;;;7.60;84.40;;;;;;4334635;33;20025;-73
2021/03/27 04:16:28;;;;;;;;;;;7.70;84.30;;;;;;4334201;33;20444;-72
2021/03/27 04:18:58;;;;;;;;;;;7.70;85.30;;;;;;4347362;33;20016;-73
2021/03/27 04:21:36;;;;;;;;;;;7.60;84.50;;;;;;4334757;33;20017;-73
2021/03/27 04:24:03;;;;;;;;;;;7.70;84.70;;;;;;4347968;33;20466;-73
2021/03/27 04:26:30;;;;;;;;;;;7.70;84.70;;;;;;4334614;33;20017;-72
2021/03/27 04:29:09;;;;;;;;;;;7.60;84.80;;;;;;4334068;33;20361;-72
2021/03/27 04:31:47;;;;;;;;;;;7.60;84.80;;;;;;4347840;33;20227;-72
2021/03/27 04:34:32;;;;;;;;;;;7.60;84.70;;;;;;4334559;33;20027;-72
2021/03/27 04:37:04;;;;;;;;;;;7.60;84.80;;;;;;4334479;33;20005;-72
2021/03/27 04:39:46;;;;;;;;;;;7.70;84.70;;;;;;4347881;33;20016;-73
2021/03/27 04:42:13;;;;;;;;;;;7.70;84.60;;;;;;4347067;33;20001;-72
2021/03/27 04:45:02;;;;;;;;;;;7.70;84.70;;;;;;4346185;33;30420;-72
2021/03/27 04:47:31;;;;;;;;;;;7.70;84.80;;;;;;4333595;33;20387;-72
2021/03/27 04:50:10;;;;;;;;;;;7.70;84.60;;;;;;4346326;33;30280;-72
2021/03/27 04:52:55;;;;;;;;;;;7.70;84.50;;;;;;4332938;33;38659;-73
2021/03/27 04:55:40;;;;;;;;;;;7.70;84.60;;;;;;4346158;33;36505;-72
2021/03/27 04:58:13;;;;;;;;;;;7.70;84.40;;;;;;4334037;33;20371;-72
2021/03/27 05:00:58;;;;;;;;;;;7.80;84.50;;;;;;4346129;33;45002;-72
2021/03/27 05:03:31;;;;;;;;;;;7.80;84.40;;;;;;4346551;33;20005;-72
2021/03/27 05:06:18;;;;;;;;;;;7.80;84.50;;;;;;4321463;33;20429;-72
2021/03/27 05:08:59;;;;;;;;;;;7.70;84.50;;;;;;4346989;33;20019;-72
2021/03/27 05:11:45;;;;;;;;;;;7.70;84.60;;;;;;4333435;33;20046;-72
2021/03/27 05:14:16;;;;;;;;;;;7.70;84.70;;;;;;4346984;33;20001;-72
2021/03/27 05:17:13;;;;;;;;;;;7.60;84.90;;;;;;4333483;33;20524;-72
2021/03/27 05:19:51;;;;;;;;;;;7.70;85.00;;;;;;4345767;33;20027;-72
2021/03/27 05:22:23;;;;;;;;;;;7.70;85.20;;;;;;4333245;33;20011;-72
2021/03/27 05:25:22;;;;;;;;;;;7.70;85.10;;;;;;4346539;33;20023;-72
2021/03/27 05:28:04;;;;;;;;;;;7.70;85.10;;;;;;4321690;33;20015;-73
2021/03/27 05:30:33;;;;;;;;;;;7.70;86.20;;;;;;4346736;33;20009;-74
2021/03/27 05:33:12;;;;;;;;;;;7.70;85.50;;;;;;4346322;33;20009;-74
2021/03/27 05:35:53;;;;;;;;;;;7.60;85.50;;;;;;4346615;33;20013;-73
2021/03/27 05:38:25;;;;;;;;;;;7.60;85.50;;;;;;4346508;33;20020;-72
2021/03/27 05:41:10;;;;;;;;;;;7.40;85.80;;;;;;4333083;33;20005;-72
2021/03/27 05:43:51;;;;;;;;;;;7.30;85.90;;;;;;4333171;33;20082;-72
2021/03/27 05:46:36;;;;;;;;;;;7.20;85.80;;;;;;4332962;33;20025;-72
2021/03/27 05:49:21;;;;;;;;;;;7.20;85.80;;;;;;4345736;33;43267;-72
2021/03/27 05:51:57;;;;;;;;;;;7.10;85.50;;;;;;4345411;33;44686;-72
2021/03/27 05:54:42;;;;;;;;;;;7.10;85.80;;;;;;4346311;33;20351;-72
2021/03/27 05:57:12;;;;;;;;;;;7.10;86.10;;;;;;4332565;33;20028;-72
2021/03/27 05:59:54;;;;;;;;;;;7.00;86.10;;;;;;4346545;33;20407;-72
2021/03/27 06:02:35;;;;;;;;;;;6.90;86.10;;;;;;4345679;33;20021;-72
2021/03/27 06:05:14;;;;;;;;;;;6.90;86.20;;;;;;4333521;33;20014;-72
2021/03/27 06:07:53;;;;;;;;;;;6.90;86.40;;;;;;4333439;33;20025;-72
2021/03/27 06:10:31;;;;;;;;;;;6.90;86.40;;;;;;4320719;33;20001;-72
2021/03/27 06:13:07;;;;;;;;;;;6.90;86.50;;;;;;4332716;33;20033;-72
2021/03/27 06:15:52;;;;;;;;;;;6.80;86.60;;;;;;4346600;33;20015;-72
2021/03/27 06:18:27;;;;;;;;;;;6.70;86.60;;;;;;4333274;33;20068;-72
2021/03/27 06:20:56;;;;;;;;;;;6.70;86.60;;;;;;4333023;33;20402;-72
2021/03/27 06:23:47;;;;;;;;;;;6.70;86.70;;;;;;4322771;33;20001;-72
2021/03/27 06:26:22;;;;;;;;;;;6.70;86.70;;;;;;4315853;33;19994;-72
2021/03/27 06:28:54;;;;;;;;;;;6.70;86.80;;;;;;4336306;33;20009;-72
2021/03/27 06:31:42;;;;;;;;;;;6.70;86.80;;;;;;4336240;33;20012;-72
2021/03/27 06:34:29;;;;;;;;;;;6.70;86.80;;;;;;4335479;33;20010;-72
2021/03/27 06:37:27;;;;;;;;;;;6.60;86.70;;;;;;4325959;33;19997;-72
2021/03/27 06:40:02;;;;;;;;;;;6.60;87.20;;;;;;4309610;33;20116;-73
2021/03/27 06:42:38;;;;;;;;;;;6.60;87.20;;;;;;4349376;33;20015;-72
2021/03/27 06:45:29;;;;;;;;;;;6.60;87.20;;;;;;4335515;33;20003;-72
2021/03/27 06:48:14;;;;;;;;;;;6.60;87.20;;;;;;4348139;33;44329;-72
2021/03/27 06:50:41;;;;;;;;;;;6.60;87.10;;;;;;4347727;33;38227;-73
2021/03/27 06:53:12;;;;;;;;;;;6.60;87.20;;;;;;4348159;33;44309;-72
2021/03/27 06:55:42;;;;;;;;;;;6.60;87.10;;;;;;4335433;33;20001;-72
2021/03/27 06:58:09;;;;;;;;;;;6.60;87.10;;;;;;4335666;33;20013;-72
2021/03/27 07:00:55;;;;;;;;;;;6.60;87.30;;;;;;4335706;33;20002;-72
2021/03/27 07:03:34;;;;;;;;;;;6.60;87.30;;;;;;4334845;33;20019;-72
2021/03/27 07:06:22;;;;;;;;;;;6.60;87.30;;;;;;4336044;33;20021;-72
2021/03/27 07:09:24;;;;;;;;;;;6.60;87.20;;;;;;4348639;33;20008;-72
2021/03/27 07:12:13;;;;;;;;;;;6.60;87.50;;;;;;4302982;33;20026;-72
2021/03/27 07:14:42;;;;;;;;;;;6.60;87.50;;;;;;4332878;33;20060;-72
2021/03/27 07:17:23;;;;;;;;;;;6.60;87.70;;;;;;4348861;33;20470;-72
2021/03/27 07:20:06;;;;;;;;;;;6.60;88.10;;;;;;4335072;33;20024;-72
2021/03/27 07:23:04;;;;;;;;;;;6.50;88.10;;;;;;4348968;33;20017;-72
2021/03/27 07:25:44;;;;;;;;;;;6.60;88.20;;;;;;4334638;33;20059;-72
2021/03/27 07:28:14;;;;;;;;;;;6.70;88.30;;;;;;4334921;33;20020;-72
2021/03/27 07:30:50;;;;;;;;;;;6.70;88.30;;;;;;4347398;33;40206;-72
2021/03/27 07:33:26;;;;;;;;;;;6.70;88.10;;;;;;4347059;33;43652;-72
2021/03/27 07:36:16;;;;;;;;;;;6.80;88.20;;;;;;4346765;33;43304;-72
2021/03/27 07:39:01;;;;;;;;;;;6.80;88.50;;;;;;4325870;33;43625;-72
2021/03/27 07:41:28;;;;;;;;;;;6.90;88.40;;;;;;4347282;33;44941;-72
2021/03/27 07:44:06;;;;;;;;;;;6.90;88.40;;;;;;4334858;33;20013;-72
2021/03/27 07:46:52;;;;;;;;;;;6.90;88.30;;;;;;4348183;33;20005;-72
2021/03/27 07:49:38;;;;;;;;;;;7.00;88.20;;;;;;4348032;33;20017;-72
2021/03/27 07:52:13;;;;;;;;;;;7.00;88.20;;;;;;4347716;33;20027;-72
2021/03/27 07:54:46;;;;;;;;;;;7.00;88.10;;;;;;4334578;33;20001;-72
2021/03/27 07:57:22;;;;;;;;;;;7.00;88.10;;;;;;4348074;33;20013;-72
2021/03/27 08:00:00;;;;;;;;;;;7.10;88.00;;;;;;4348016;33;20009;-72
2021/03/27 08:02:45;;;;;;;;;;;7.10;88.10;;;;;;4347892;33;20082;-72
2021/03/27 08:05:28;;;;;;;;;;;7.10;88.70;;;;;;4346723;33;43675;-72
2021/03/27 08:08:02;;;;;;;;;;;7.10;88.40;;;;;;4346878;33;44310;-72
2021/03/27 08:11:04;;;;;;;;;;;7.20;88.50;;;;;;4347126;33;41796;-72
2021/03/27 08:13:36;;;;;;;;;;;7.20;88.40;;;;;;4338889;33;43380;-72
2021/03/27 08:16:25;;;;;;;;;;;7.20;88.30;;;;;;4347123;33;32538;-72
2021/03/27 08:19:11;;;;;;;;;;;7.20;88.50;;;;;;4346762;33;41496;-72
2021/03/27 08:21:43;;;;;;;;;;;7.30;88.60;;;;;;4346495;33;44633;-72
2021/03/27 08:24:16;;;;;;;;;;;7.30;88.50;;;;;;4320932;33;44437;-73
2021/03/27 08:27:01;;;;;;;;;;;7.30;88.10;;;;;;4347062;33;20047;-72
2021/03/27 08:30:04;;;;;;;;;;;7.40;88.80;;;;;;4347691;33;20430;-72
2021/03/27 08:32:49;;;;;;;;;;;7.40;88.40;;;;;;4289289;33;20014;-73
2021/03/27 08:35:21;;;;;;;;;;;7.40;88.50;;;;;;4331340;33;20005;-72
2021/03/27 08:38:07;;;;;;;;;;;7.40;88.40;;;;;;4347735;33;20011;-72
2021/03/27 08:40:36;;;;;;;;;;;7.50;88.40;;;;;;4333891;33;20012;-73
2021/03/27 08:43:23;;;;;;;;;;;7.50;88.40;;;;;;4322327;33;20019;-73
2021/03/27 08:45:50;;;;;;;;;;;7.50;88.20;;;;;;4333472;33;20022;-73
2021/03/27 08:48:19;;;;;;;;;;;7.50;88.00;;;;;;4334490;33;20019;-73
2021/03/27 08:51:08;;;;;;;;;;;7.50;87.80;;;;;;4334033;33;19997;-73
2021/03/27 08:54:16;;;;;;;;;;;7.50;88.00;;;;;;4347429;33;20097;-73
2021/03/27 08:56:52;;;;;;;;;;;7.50;87.70;;;;;;4346701;33;20009;-73
2021/03/27 08:59:37;;;;;;;;;;;7.50;88.00;;;;;;4334378;33;20025;-73
2021/03/27 09:02:23;;;;;;;;;;;7.50;87.80;;;;;;4333458;33;20052;-73
2021/03/27 09:05:05;;;;;;;;;;;7.50;87.70;;;;;;4320319;33;43513;-73
2021/03/27 09:07:39;;;;;;;;;;;7.50;88.00;;;;;;4332461;33;39195;-73
2021/03/27 09:10:29;;;;;;;;;;;7.40;88.00;;;;;;4346176;33;40073;-73
2021/03/27 09:13:10;;;;;;;;;;;7.40;87.80;;;;;;4345943;33;44697;-73
2021/03/27 09:15:56;;;;;;;;;;;7.40;87.80;;;;;;4345860;33;41567;-73
2021/03/27 09:18:25;;;;;;;;;;;7.30;87.70;;;;;;4346472;33;20023;-73
2021/03/27 09:21:06;;;;;;;;;;;7.30;88.10;;;;;;4347072;33;20362;-73
2021/03/27 09:23:33;;;;;;;;;;;7.20;88.20;;;;;;4346793;33;20043;-72
2021/03/27 09:26:21;;;;;;;;;;;7.20;88.20;;;;;;4347196;33;20443;-73
2021/03/27 09:28:53;;;;;;;;;;;7.20;88.40;;;;;;4333344;33;20068;-72
2021/03/27 09:31:32;;;;;;;;;;;7.20;88.40;;;;;;4347009;33;20001;-72
2021/03/27 09:34:10;;;;;;;;;;;7.20;88.60;;;;;;4346382;33;20021;-72
2021/03/27 09:36:46;;;;;;;;;;;7.20;88.70;;;;;;4347138;33;20064;-72
2021/03/27 09:39:28;;;;;;;;;;;7.30;89.10;;;;;;4345676;33;34465;-72
2021/03/27 09:42:01;;;;;;;;;;;7.40;89.40;;;;;;4345930;33;34103;-72
2021/03/27 09:44:33;;;;;;;;;;;7.30;89.70;;;;;;4320814;33;20095;-72
2021/03/27 09:47:18;;;;;;;;;;;7.40;89.80;;;;;;4345829;33;37033;-72
2021/03/27 09:49:57;;;;;;;;;;;7.50;89.40;;;;;;4345625;33;44075;-72
2021/03/27 09:52:26;;;;;;;;;;;7.50;89.20;;;;;;4345570;33;41993;-72
2021/03/27 09:55:08;;;;;;;;;;;7.60;88.70;;;;;;4333947;33;44341;-72
2021/03/27 09:57:34;;;;;;;;;;;7.60;88.10;;;;;;4346097;33;20046;-72
2021/03/27 10:00:13;;;;;;;;;;;7.60;87.80;;;;;;4346658;33;20397;-72
2021/03/27 10:02:54;;;;;;;;;;;7.60;87.90;;;;;;4345796;33;20386;-72
2021/03/27 10:05:39;;;;;;;;;;;7.70;87.80;;;;;;4321424;33;20002;-72
2021/03/27 10:08:17;;;;;;;;;;;7.70;87.70;;;;;;4346181;33;20008;-72
2021/03/27 10:11:03;;;;;;;;;;;7.80;87.60;;;;;;4333386;33;20027;-73
2021/03/27 10:13:42;;;;;;;;;;;7.90;87.30;;;;;;4346492;33;20429;-73
2021/03/27 10:16:21;;;;;;;;;;;7.90;87.10;;;;;;4346735;33;20012;-73
2021/03/27 10:18:55;;;;;;;;;;;8.00;87.30;;;;;;4346299;33;20079;-73
2021/03/27 10:21:28;;;;;;;;;;;8.00;86.80;;;;;;4333341;33;20009;-73
2021/03/27 10:23:59;;;;;;;;;;;8.10;86.70;;;;;;4321184;33;20054;-73
2021/03/27 10:26:26;;;;;;;;;;;8.00;86.60;;;;;;4346571;33;20398;-73
2021/03/27 10:28:55;;;;;;;;;;;8.10;86.80;;;;;;4332950;33;20393;-73
2021/03/27 10:31:30;;;;;;;;;;;8.10;86.80;;;;;;4332653;33;20015;-73
2021/03/27 10:34:19;;;;;;;;;;;8.10;87.00;;;;;;4346471;33;20090;-73
2021/03/27 10:37:01;;;;;;;;;;;8.20;86.60;;;;;;4332985;33;20013;-73
2021/03/27 10:39:37;;;;;;;;;;;8.20;86.30;;;;;;4346203;33;20006;-73
2021/03/27 10:42:16;;;;;;;;;;;8.30;85.90;;;;;;4346469;33;20061;-73
2021/03/27 10:44:42;;;;;;;;;;;8.30;86.00;;;;;;4345397;33;35633;-73
2021/03/27 10:47:18;;;;;;;;;;;8.40;85.70;;;;;;4332199;33;28590;-73
2021/03/27 10:50:03;;;;;;;;;;;8.40;85.90;;;;;;4331626;33;33912;-73
2021/03/27 10:52:35;;;;;;;;;;;8.50;85.70;;;;;;4345131;33;43663;-73
2021/03/27 10:55:38;;;;;;;;;;;8.60;85.90;;;;;;4345101;33;45025;-73
2021/03/27 10:58:17;;;;;;;;;;;8.60;85.10;;;;;;4332000;33;44601;-73
2021/03/27 11:00:59;;;;;;;;;;;8.70;85.20;;;;;;4346166;33;20009;-73
2021/03/27 11:03:38;;;;;;;;;;;8.70;85.10;;;;;;4331627;33;43105;-73
2021/03/27 11:06:23;;;;;;;;;;;8.80;84.70;;;;;;4346270;33;20005;-73
2021/03/27 11:09:09;;;;;;;;;;;8.80;84.80;;;;;;4332579;33;20005;-73
2021/03/27 11:11:41;;;;;;;;;;;8.90;85.00;;;;;;4322964;33;20001;-73
2021/03/27 11:14:23;;;;;;;;;;;8.90;84.00;;;;;;4334934;33;20016;-73
2021/03/27 11:16:55;;;;;;;;;;;8.90;83.50;;;;;;4335980;33;20013;-73
2021/03/27 11:19:40;;;;;;;;;;;8.90;83.10;;;;;;4348819;33;20057;-73
2021/03/27 11:22:17;;;;;;;;;;;9.00;83.50;;;;;;4348595;33;20369;-73
2021/03/27 11:25:04;;;;;;;;;;;8.90;82.70;;;;;;4349010;33;20005;-73
2021/03/27 11:27:50;;;;;;;;;;;8.90;82.70;;;;;;4348840;33;20399;-73
2021/03/27 11:30:30;;;;;;;;;;;8.80;82.10;;;;;;4348735;33;20061;-73
2021/03/27 11:33:02;;;;;;;;;;;8.80;83.30;;;;;;4335412;33;20346;-73
2021/03/27 11:35:35;;;;;;;;;;;8.70;83.60;;;;;;4348569;33;20124;-73
2021/03/27 11:38:02;;;;;;;;;;;8.60;83.80;;;;;;4348616;33;20339;-73
2021/03/27 11:40:28;;;;;;;;;;;8.60;84.20;;;;;;4347977;33;20082;-73
2021/03/27 11:43:14;;;;;;;;;;;8.60;84.20;;;;;;4334292;33;34330;-73
2021/03/27 11:46:00;;;;;;;;;;;8.60;84.20;;;;;;4347377;33;40719;-73
2021/03/27 11:48:38;;;;;;;;;;;8.60;84.10;;;;;;4347404;33;43339;-73
2021/03/27 11:51:14;;;;;;;;;;;8.60;83.80;;;;;;4334417;33;25378;-73
2021/03/27 11:53:44;;;;;;;;;;;8.70;84.00;;;;;;4347089;33;40186;-73
2021/03/27 11:56:26;;;;;;;;;;;8.70;83.80;;;;;;4347584;33;20422;-73
2021/03/27 12:02:10;;;;;;;;;;;8.80;83.60;;;;;;4347483;32;20009;-73
2021/03/27 12:04:46;;;;;;;;;;;8.80;83.60;;;;;;4334336;33;20015;-73
2021/03/27 12:07:35;;;;;;;;;;;8.90;83.70;;;;;;4334775;33;20454;-73
2021/03/27 12:10:13;;;;;;;;;;;9.00;82.70;;;;;;4334453;33;20005;-73
2021/03/27 12:12:49;;;;;;;;;;;8.90;81.00;;;;;;4334637;33;20308;-73
2021/03/27 12:15:27;;;;;;;;;;;9.00;81.50;;;;;;4347885;33;20068;-73
2021/03/27 12:18:06;;;;;;;;;;;9.00;81.50;;;;;;4334652;33;20007;-73
2021/03/27 12:20:35;;;;;;;;;;;9.10;81.30;;;;;;4346491;33;43658;-73
2021/03/27 12:23:10;;;;;;;;;;;9.10;81.70;;;;;;4333465;33;36157;-73
2021/03/27 12:25:46;;;;;;;;;;;9.20;81.50;;;;;;4346297;33;44305;-73
2021/03/27 12:28:21;;;;;;;;;;;9.30;81.10;;;;;;4333063;33;44975;-73
2021/03/27 12:31:01;;;;;;;;;;;9.40;81.20;;;;;;4332882;33;41887;-73
2021/03/27 12:34:00;;;;;;;;;;;9.50;81.40;;;;;;4347994;33;20551;-72
2021/03/27 12:36:36;;;;;;;;;;;9.60;81.00;;;;;;4308671;33;43494;-73
2021/03/27 12:39:12;;;;;;;;;;;9.60;81.30;;;;;;4332611;33;44613;-72
2021/03/27 12:42:05;;;;;;;;;;;9.70;80.80;;;;;;4321668;33;20312;-72
2021/03/27 12:44:53;;;;;;;;;;;9.70;80.00;;;;;;4345299;33;20004;-72
2021/03/27 12:47:25;;;;;;;;;;;9.80;79.20;;;;;;4346882;33;20016;-72
2021/03/27 12:50:12;;;;;;;;;;;9.80;78.70;;;;;;4347608;33;20052;-72
2021/03/27 12:52:53;;;;;;;;;;;9.70;78.30;;;;;;4311262;33;20535;-72
2021/03/27 12:55:20;;;;;;;;;;;9.80;78.70;;;;;;4333864;33;19998;-72
2021/03/27 12:57:58;;;;;;;;;;;9.70;77.80;;;;;;4347148;33;20019;-72
2021/03/27 13:00:42;;;;;;;;;;;9.70;77.20;;;;;;4347437;33;20398;-72
2021/03/27 13:03:24;;;;;;;;;;;9.70;77.40;;;;;;4346484;33;20445;-72
2021/03/27 13:06:03;;;;;;;;;;;9.70;77.20;;;;;;4333818;33;20061;-72
2021/03/27 13:08:36;;;;;;;;;;;9.70;76.80;;;;;;4346280;33;27712;-72
2021/03/27 13:11:11;;;;;;;;;;;9.70;77.80;;;;;;4346411;33;29239;-72
2021/03/27 13:13:53;;;;;;;;;;;9.70;76.20;;;;;;4345716;33;33249;-72
2021/03/27 13:16:30;;;;;;;;;;;9.70;77.00;;;;;;4332322;33;40052;-72
2021/03/27 13:18:56;;;;;;;;;;;9.70;75.40;;;;;;4345687;33;43622;-72
2021/03/27 13:21:23;;;;;;;;;;;9.70;75.80;;;;;;4332440;33;43315;-72
2021/03/27 13:24:01;;;;;;;;;;;9.70;75.70;;;;;;4332281;33;41024;-72
2021/03/27 13:26:29;;;;;;;;;;;9.70;75.00;;;;;;4347133;33;20239;-72
2021/03/27 13:29:31;;;;;;;;;;;9.70;74.40;;;;;;4346880;33;20053;-72
2021/03/27 13:32:00;;;;;;;;;;;9.80;75.60;;;;;;4345531;33;39948;-72
2021/03/27 13:34:31;;;;;;;;;;;9.80;72.90;;;;;;4332191;33;42753;-72
2021/03/27 13:37:13;;;;;;;;;;;9.80;75.40;;;;;;4345387;33;45257;-72
2021/03/27 13:39:46;;;;;;;;;;;9.90;75.50;;;;;;4345856;33;44694;-72
2021/03/27 13:42:18;;;;;;;;;;;10.00;75.30;;;;;;4332008;33;44975;-72
2021/03/27 13:44:47;;;;;;;;;;;10.00;75.40;;;;;;4347202;33;20068;-72
2021/03/27 13:47:26;;;;;;;;;;;10.10;74.90;;;;;;4346281;33;20017;-72
2021/03/27 13:50:11;;;;;;;;;;;10.10;74.70;;;;;;4333614;33;20016;-72
2021/03/27 13:52:43;;;;;;;;;;;10.20;74.80;;;;;;4346234;33;20060;-72
2021/03/27 13:55:19;;;;;;;;;;;10.30;74.50;;;;;;4346623;33;20341;-72
2021/03/27 13:57:58;;;;;;;;;;;10.30;74.50;;;;;;4346862;33;20015;-72
2021/03/27 14:00:34;;;;;;;;;;;10.30;74.70;;;;;;4346330;33;20411;-72
2021/03/27 14:03:20;;;;;;;;;;;10.30;74.40;;;;;;4346372;33;20001;-72
2021/03/27 14:05:53;;;;;;;;;;;10.40;74.50;;;;;;4346574;33;20009;-72
2021/03/27 14:08:33;;;;;;;;;;;10.40;73.10;;;;;;4333386;33;20057;-72
2021/03/27 14:11:09;;;;;;;;;;;10.40;73.80;;;;;;4333336;33;20009;-72
2021/03/27 14:13:40;;;;;;;;;;;10.40;73.50;;;;;;4332967;33;20052;-72
2021/03/27 14:16:25;;;;;;;;;;;10.40;73.50;;;;;;4346818;33;20006;-72
2021/03/27 14:18:58;;;;;;;;;;;10.40;72.80;;;;;;4346645;33;20013;-72
2021/03/27 14:21:28;;;;;;;;;;;10.40;72.10;;;;;;4332135;33;42094;-72
2021/03/27 14:24:07;;;;;;;;;;;10.30;72.30;;;;;;4345355;33;41173;-72
2021/03/27 14:26:34;;;;;;;;;;;10.30;71.30;;;;;;4345240;33;44637;-72
2021/03/27 14:29:13;;;;;;;;;;;10.20;71.40;;;;;;4345798;33;20021;-72
2021/03/27 14:31:48;;;;;;;;;;;10.20;71.60;;;;;;4346594;33;20060;-72
2021/03/27 14:34:41;;;;;;;;;;;10.30;72.00;;;;;;4346493;33;20005;-72
2021/03/27 14:37:23;;;;;;;;;;;10.20;71.00;;;;;;4346923;33;20029;-72
2021/03/27 14:40:01;;;;;;;;;;;10.30;71.80;;;;;;4332761;33;20013;-72
2021/03/27 14:42:45;;;;;;;;;;;10.30;71.10;;;;;;4346297;33;20060;-72
2021/03/27 14:45:18;;;;;;;;;;;10.30;71.50;;;;;;4334823;33;20362;-72
2021/03/27 14:47:48;;;;;;;;;;;10.30;70.40;;;;;;4349392;33;20395;-72
2021/03/27 14:50:46;;;;;;;;;;;10.20;70.60;;;;;;4349131;33;20026;-72
2021/03/27 14:53:17;;;;;;;;;;;10.20;70.60;;;;;;4334583;33;20044;-72
2021/03/27 14:55:59;;;;;;;;;;;10.20;70.90;;;;;;4349152;33;20061;-72
2021/03/27 14:58:28;;;;;;;;;;;10.20;71.10;;;;;;4348980;33;20015;-72
2021/03/27 15:01:01;;;;;;;;;;;10.20;69.60;;;;;;4335925;33;20017;-72
2021/03/27 15:03:53;;;;;;;;;;;10.20;70.70;;;;;;4335255;33;20339;-72
2021/03/27 15:06:24;;;;;;;;;;;10.20;69.90;;;;;;4335279;33;20059;-72
2021/03/27 15:09:05;;;;;;;;;;;10.20;71.10;;;;;;4335531;33;20032;-72
2021/03/27 15:11:45;;;;;;;;;;;10.20;70.80;;;;;;4348926;33;20023;-72
2021/03/27 15:14:12;;;;;;;;;;;10.20;71.10;;;;;;4334946;33;20012;-72
2021/03/27 15:16:43;;;;;;;;;;;10.20;71.10;;;;;;4347684;33;40270;-72
2021/03/27 15:19:16;;;;;;;;;;;10.30;71.20;;;;;;4347395;33;41294;-72
2021/03/27 15:21:59;;;;;;;;;;;10.30;71.10;;;;;;4347666;33;39358;-72
2021/03/27 15:24:43;;;;;;;;;;;10.30;71.10;;;;;;4347558;33;43564;-72
2021/03/27 15:27:18;;;;;;;;;;;10.30;71.50;;;;;;4348797;33;20026;-72
2021/03/27 15:29:50;;;;;;;;;;;10.40;71.40;;;;;;4334211;33;44658;-72
2021/03/27 15:32:36;;;;;;;;;;;10.40;71.50;;;;;;4348208;33;20024;-72
2021/03/27 15:35:29;;;;;;;;;;;10.40;70.40;;;;;;4335151;33;19997;-72